Time;durP1;ratioP1;P1;durP2;ratioP2;P2;SDS_P1;SDS_P2;PMS_P1;PMS_P2;Temp;Humidity;BMP_temperature;BMP_pressure;BME280_temperature;BME280_humidity;BME280_pressure;Samples;Min_cycle;Max_cycle;Signal;HPM_P1;HPM_P2
2022/06/21 00:00:43;;;;;;;8.75;3.50;;;;;;;20.88;51.48;94319.13;4218579;28;20468;-57
2022/06/21 00:02:46;;;;;;;7.43;4.20;;;;;;;20.91;51.64;94318.63;4211167;28;20063;-58
2022/06/21 00:04:47;;;;;;;5.95;4.03;;;;;;;20.91;51.78;94318.63;4209032;28;20117;-57
2022/06/21 00:06:49;;;;;;;10.40;4.13;;;;;;;20.93;51.84;94312.06;4208001;28;20558;-56
2022/06/21 00:08:51;;;;;;;8.48;4.28;;;;;;;20.95;51.95;94317.13;4210954;28;20060;-54
2022/06/21 00:10:55;;;;;;;6.88;3.63;;;;;;;20.94;52.17;94311.00;4208818;28;20048;-57
2022/06/21 00:12:56;;;;;;;6.35;3.97;;;;;;;20.92;52.18;94318.41;4208443;28;20373;-56
2022/06/21 00:14:58;;;;;;;6.10;3.83;;;;;;;20.88;52.35;94314.59;4206288;28;20818;-57
2022/06/21 00:17:00;;;;;;;5.85;4.10;;;;;;;20.89;52.53;94312.75;4209488;28;20133;-57
2022/06/21 00:19:03;;;;;;;7.35;3.97;;;;;;;20.84;52.62;94316.09;4208534;28;20059;-55
2022/06/21 00:21:19;;;;;;;6.73;3.97;;;;;;;20.81;52.19;94316.56;4215886;28;20081;-55
2022/06/21 00:23:25;;;;;;;4.88;4.13;;;;;;;20.77;52.38;94308.22;4212391;28;20284;-58
2022/06/21 00:25:27;;;;;;;5.22;3.88;;;;;;;20.75;52.29;94307.66;4207507;28;20097;-57
2022/06/21 00:27:29;;;;;;;6.93;3.65;;;;;;;20.77;52.32;94305.56;4201644;28;20589;-56
2022/06/21 00:29:30;;;;;;;6.57;4.20;;;;;;;20.81;52.45;94305.94;4219962;28;20060;-54
2022/06/21 00:31:35;;;;;;;8.57;4.05;;;;;;;20.81;52.75;94306.72;4208891;28;20047;-53
2022/06/21 00:33:37;;;;;;;9.02;4.32;;;;;;;20.81;52.68;94301.41;4219409;28;20044;-58
2022/06/21 00:35:41;;;;;;;5.03;3.78;;;;;;;20.81;52.73;94298.75;4200356;28;20110;-54
2022/06/21 00:37:43;;;;;;;8.93;4.40;;;;;;;20.80;52.74;94298.97;4202562;28;20365;-55
2022/06/21 00:39:45;;;;;;;5.70;3.95;;;;;;;20.78;53.12;94303.72;4207618;28;20612;-55
2022/06/21 00:41:56;;;;;;;7.60;4.55;;;;;;;20.78;52.81;94301.88;4195280;28;20056;-56
2022/06/21 00:44:00;;;;;;;6.97;3.92;;;;;;;20.74;52.83;94295.41;4209982;28;20307;-56
2022/06/21 00:46:02;;;;;;;8.10;4.30;;;;;;;20.77;53.02;94302.09;4192471;28;20044;-58
2022/06/21 00:48:15;;;;;;;7.78;3.45;;;;;;;20.72;53.24;94308.13;4216033;28;20071;-54
2022/06/21 00:50:29;;;;;;;5.30;3.85;;;;;;;20.69;53.04;94308.56;4212201;28;20060;-56
2022/06/21 00:52:47;;;;;;;4.68;3.55;;;;;;;20.69;52.98;94307.78;4206780;28;20056;-53
2022/06/21 00:54:57;;;;;;;5.00;3.55;;;;;;;20.69;52.86;94305.09;4207010;28;20121;-55
2022/06/21 00:57:11;;;;;;;5.57;3.60;;;;;;;20.64;52.52;94303.16;4207295;28;20152;-57
2022/06/21 00:59:25;;;;;;;9.07;3.50;;;;;;;20.61;52.42;94300.97;4194847;28;20544;-57
2022/06/21 01:01:29;;;;;;;4.45;3.47;;;;;;;20.56;52.87;94303.44;4205029;28;20047;-54
2022/06/21 01:03:40;;;;;;;5.13;3.70;;;;;;;20.54;52.83;94305.53;4206858;28;20065;-54
2022/06/21 01:05:44;;;;;;;8.57;4.15;;;;;;;20.50;53.20;94304.38;4205301;28;20044;-54
2022/06/21 01:07:46;;;;;;;8.07;4.22;;;;;;;20.44;53.40;94296.28;4216586;28;20093;-55
2022/06/21 01:09:52;;;;;;;5.68;4.55;;;;;;;20.45;53.53;94291.75;4216263;28;20063;-56
2022/06/21 01:12:03;;;;;;;5.80;4.07;;;;;;;20.42;53.60;94300.22;4208148;28;20137;-57
2022/06/21 01:14:06;;;;;;;4.05;3.63;;;;;;;20.42;53.60;94286.91;4206283;28;20114;-57
2022/06/21 01:16:08;;;;;;;5.05;4.05;;;;;;;20.40;54.04;94294.31;4205315;28;20078;-55
2022/06/21 01:18:12;;;;;;;8.88;4.25;;;;;;;20.36;54.19;94299.25;4208895;28;20048;-55
2022/06/21 01:20:21;;;;;;;10.98;5.03;;;;;;;20.22;54.62;94305.84;4197479;28;20248;-54
2022/06/21 01:22:34;;;;;;;8.23;4.40;;;;;;;20.10;55.00;94305.00;4210602;28;20044;-55
2022/06/21 01:25:13;;;;;;;8.98;4.63;;;;;;;20.01;55.03;94302.66;4196182;28;20126;-58
2022/06/21 01:27:15;;;;;;;7.72;5.07;;;;;;;19.83;55.68;94306.22;4196411;28;20053;-54
2022/06/21 01:29:23;;;;;;;9.77;4.82;;;;;;;19.71;56.17;94307.19;4198799;28;20093;-53
2022/06/21 01:31:47;;;;;;;9.23;5.05;;;;;;;19.64;56.48;94302.75;4203383;28;20109;-55
2022/06/21 01:33:49;;;;;;;12.30;5.28;;;;;;;19.56;56.61;94304.91;4197935;28;20048;-55
2022/06/21 01:35:52;;;;;;;7.40;4.53;;;;;;;19.58;56.90;94308.97;4208269;28;20136;-57
2022/06/21 01:37:56;;;;;;;5.53;4.72;;;;;;;19.61;56.70;94305.03;4206094;28;20060;-55
2022/06/21 01:40:08;;;;;;;7.10;4.43;;;;;;;19.69;56.57;94307.38;4205642;28;20090;-57
2022/06/21 01:42:15;;;;;;;6.13;4.57;;;;;;;19.76;56.39;94309.97;4218305;28;20051;-55
2022/06/21 01:44:40;;;;;;;5.82;4.93;;;;;;;19.69;56.60;94309.25;4222104;28;20100;-57
2022/06/21 01:46:43;;;;;;;6.75;5.10;;;;;;;19.70;56.59;94297.59;4207597;28;20056;-56
2022/06/21 01:48:51;;;;;;;8.68;5.18;;;;;;;19.74;56.50;94296.09;4207674;28;20129;-56
2022/06/21 01:50:55;;;;;;;8.18;5.20;;;;;;;19.83;56.48;94310.69;4210607;28;20048;-55
2022/06/21 01:52:56;;;;;;;;;;;;;;;19.89;56.36;94309.78;4207850;28;20297;-54
2022/06/21 01:55:05;;;;;;;9.90;4.88;;;;;;;19.90;56.18;94311.44;4212726;28;19936;-57
2022/06/21 01:57:08;;;;;;;8.00;4.90;;;;;;;19.93;56.25;94313.63;4214428;28;20059;-54
2022/06/21 01:59:14;;;;;;;9.50;5.47;;;;;;;19.81;55.62;94310.94;4218407;28;20047;-58
2022/06/21 02:01:37;;;;;;;8.70;5.03;;;;;;;19.51;56.09;94308.25;4204079;28;20048;-57
2022/06/21 02:03:40;;;;;;;11.32;5.28;;;;;;;19.39;56.82;94307.38;4206337;28;20097;-57
2022/06/21 02:05:47;;;;;;;12.93;5.00;;;;;;;19.23;57.14;94314.91;4208247;28;20052;-56
2022/06/21 02:07:51;;;;;;;7.88;4.85;;;;;;;19.01;57.67;94313.69;4217824;28;20059;-53
2022/06/21 02:10:12;;;;;;;11.02;5.53;;;;;;;18.98;58.01;94314.97;4208396;28;20155;-57
2022/06/21 02:12:14;;;;;;;9.90;5.20;;;;;;;19.04;58.11;94307.97;4218372;28;20247;-58
2022/06/21 02:14:28;;;;;;;9.63;5.30;;;;;;;19.13;58.19;94309.28;4216055;28;20509;-55
2022/06/21 02:16:30;;;;;;;8.65;5.50;;;;;;;19.21;57.75;94306.34;4209108;28;20109;-58
2022/06/21 02:18:35;;;;;;;7.65;5.22;;;;;;;19.31;57.20;94313.78;4209331;28;20048;-57
2022/06/21 02:20:55;;;;;;;8.60;5.60;;;;;;;19.41;56.72;94318.56;4214433;28;20048;-55
2022/06/21 02:22:57;;;;;;;9.38;5.28;;;;;;;19.35;56.91;94316.81;4204291;28;20492;-56
2022/06/21 02:24:59;;;;;;;6.47;4.72;;;;;;;19.20;57.20;94312.66;4224030;28;20448;-57
2022/06/21 02:27:01;;;;;;;11.85;6.03;;;;;;;18.99;57.99;94308.63;4224139;28;20060;-55
2022/06/21 02:29:04;;;;;;;9.60;5.60;;;;;;;18.99;58.05;94302.50;4205381;28;20471;-53
2022/06/21 02:31:05;;;;;;;12.20;5.25;;;;;;;19.03;57.89;94295.72;4201580;28;20052;-54
2022/06/21 02:33:14;;;;;;;12.15;5.18;;;;;;;19.05;57.63;94306.91;4210325;28;20237;-55
2022/06/21 02:35:39;;;;;;;7.90;5.18;;;;;;;19.13;57.49;94296.00;4204694;28;20470;-55
2022/06/21 02:37:41;;;;;;;13.02;5.20;;;;;;;19.20;57.32;94295.94;4203783;28;20044;-55
2022/06/21 02:39:43;;;;;;;10.13;4.97;;;;;;;19.23;56.97;94296.31;4208667;28;20124;-55
2022/06/21 02:41:49;;;;;;;11.35;5.13;;;;;;;19.28;56.89;94300.16;4209034;28;20048;-56
2022/06/21 02:43:55;;;;;;;8.10;5.28;;;;;;;19.28;56.68;94297.50;4209351;28;20097;-55
2022/06/21 02:46:08;;;;;;;10.40;5.07;;;;;;;19.31;56.08;94297.84;4206466;28;20113;-55
2022/06/21 02:48:15;;;;;;;12.75;5.05;;;;;;;19.32;56.38;94303.97;4202485;28;20071;-54
2022/06/21 02:50:34;;;;;;;13.82;5.22;;;;;;;19.33;56.06;94295.78;4210583;28;20142;-57
2022/06/21 02:52:40;;;;;;;7.97;4.93;;;;;;;19.38;55.90;94293.28;4197192;28;20056;-55
2022/06/21 02:54:47;;;;;;;5.53;4.57;;;;;;;19.39;55.57;94294.88;4196503;28;20765;-55
2022/06/21 02:56:56;;;;;;;9.55;4.20;;;;;;;19.39;55.41;94292.22;4211847;28;20121;-55
2022/06/21 02:58:59;;;;;;;7.85;5.00;;;;;;;19.36;55.56;94292.69;4196770;28;20048;-56
2022/06/21 03:01:11;;;;;;;8.35;4.57;;;;;;;19.41;55.66;94286.69;4193047;28;20060;-56
2022/06/21 03:03:18;;;;;;;5.38;4.10;;;;;;;19.43;55.52;94296.06;4196779;28;20044;-55
2022/06/21 03:05:22;;;;;;;8.27;4.38;;;;;;;19.46;55.73;94292.16;4212158;28;20075;-52
2022/06/21 03:07:31;;;;;;;7.65;5.00;;;;;;;19.48;55.46;94287.41;4198698;28;20060;-54
2022/06/21 03:09:34;;;;;;;9.48;4.78;;;;;;;19.43;55.96;94281.97;4208456;28;20601;-54
2022/06/21 03:11:42;;;;;;;8.85;4.32;;;;;;;19.47;55.86;94292.94;4222565;28;20048;-60
2022/06/21 03:13:44;;;;;;;8.15;4.97;;;;;;;19.51;55.57;94288.81;4206639;28;20043;-57
2022/06/21 03:15:49;;;;;;;7.97;5.00;;;;;;;19.54;55.48;94285.72;4206868;28;20103;-56
2022/06/21 03:17:55;;;;;;;12.02;5.95;;;;;;;19.54;55.23;94281.22;4220811;28;20094;-56
2022/06/21 03:19:56;;;;;;;10.57;4.57;;;;;;;19.53;54.94;94276.94;4207948;28;20063;-59
2022/06/21 03:21:58;;;;;;;5.78;4.40;;;;;;;19.54;54.92;94283.88;4192982;28;20527;-55
2022/06/21 03:24:07;;;;;;;6.47;4.47;;;;;;;19.53;55.11;94270.81;4198236;28;20056;-55
2022/06/21 03:26:10;;;;;;;7.03;4.15;;;;;;;19.54;54.96;94273.25;4209873;28;20044;-56
2022/06/21 03:28:20;;;;;;;7.78;4.47;;;;;;;19.54;55.12;94275.09;4218133;28;20155;-54
2022/06/21 03:30:28;;;;;;;10.68;4.43;;;;;;;19.52;55.08;94277.97;4198737;28;20056;-54
2022/06/21 03:32:33;;;;;;;13.45;5.18;;;;;;;19.41;55.45;94284.03;4207429;28;21039;-56
2022/06/21 03:34:35;;;;;;;7.88;4.75;;;;;;;19.34;55.52;94280.66;4207992;28;20052;-55
2022/06/21 03:36:37;;;;;;;7.00;4.70;;;;;;;19.20;55.65;94280.00;4208933;28;20489;-58
2022/06/21 03:38:42;;;;;;;11.85;4.90;;;;;;;19.11;56.21;94282.16;4209124;28;20048;-57
2022/06/21 03:43:12;;;;;;;5.88;4.82;;;;;;;19.08;56.43;94285.25;4224933;28;20051;-56
2022/06/21 03:45:23;;;;;;;9.15;4.78;;;;;;;19.17;55.86;94283.91;4210062;28;20085;-55
2022/06/21 03:47:30;;;;;;;8.73;5.00;;;;;;;19.18;55.55;94290.03;4216167;28;20246;-54
2022/06/21 03:49:38;;;;;;;9.13;4.95;;;;;;;19.02;56.14;94300.22;4212300;28;20357;-56
2022/06/21 03:51:42;;;;;;;6.78;5.03;;;;;;;18.88;56.35;94308.53;4216571;28;20519;-55
2022/06/21 03:53:48;;;;;;;9.75;5.43;;;;;;;18.59;57.36;94305.53;4219093;28;20500;-57
2022/06/21 03:56:05;;;;;;;6.78;4.82;;;;;;;18.58;57.63;94304.72;4206703;28;20415;-55
2022/06/21 03:58:22;;;;;;;10.57;5.20;;;;;;;18.57;57.50;94304.94;4218871;28;20109;-56
2022/06/21 04:00:26;;;;;;;7.68;5.47;;;;;;;18.52;57.93;94312.72;4205801;28;20127;-55
2022/06/21 04:02:39;;;;;;;9.73;5.53;;;;;;;18.63;58.15;94307.53;4208635;28;20048;-53
2022/06/21 04:04:53;;;;;;;10.57;5.53;;;;;;;18.78;57.83;94301.91;4200223;28;20051;-53
2022/06/21 04:06:55;;;;;;;;;;;;;;;18.96;57.23;94297.63;4216998;28;20277;-53
2022/06/21 04:09:07;;;;;;;7.53;4.95;;;;;;;19.15;56.49;94298.47;4207038;28;19942;-55
2022/06/21 04:11:19;;;;;;;13.50;5.47;;;;;;;19.31;56.28;94297.84;4206515;28;20094;-54
2022/06/21 04:13:26;;;;;;;14.85;10.70;;;;;;;19.46;56.11;94297.47;4214000;28;20044;-55
2022/06/21 04:15:46;;;;;;;18.23;8.80;;;;;;;19.63;55.39;94290.47;4207061;28;20143;-55
2022/06/21 04:18:18;;;;;;;7.45;5.80;;;;;;;19.79;55.38;94293.59;4208787;28;20056;-55
2022/06/21 04:20:24;;;;;;;11.75;5.35;;;;;;;19.95;54.51;94286.81;4203594;28;20043;-56
2022/06/21 04:22:26;;;;;;;13.95;5.90;;;;;;;20.07;54.42;94276.19;4208643;28;20048;-54
2022/06/21 04:24:44;;;;;;;8.07;5.53;;;;;;;20.20;54.18;94284.00;4209206;28;20139;-56
2022/06/21 04:26:50;;;;;;;15.77;5.85;;;;;;;20.32;53.96;94284.00;4213303;28;20040;-53
2022/06/21 04:28:58;;;;;;;13.75;6.25;;;;;;;20.41;53.54;94278.13;4212272;28;20442;-53
2022/06/21 04:31:04;;;;;;;10.48;6.13;;;;;;;20.48;53.50;94277.19;4205250;28;20116;-55
2022/06/21 04:33:27;;;;;;;10.43;5.93;;;;;;;20.54;53.46;94281.59;4216646;28;20055;-54
2022/06/21 04:35:32;;;;;;;13.47;5.90;;;;;;;20.58;53.76;94274.78;4198207;28;20158;-55
2022/06/21 04:37:55;;;;;;;41.78;25.80;;;;;;;20.62;53.72;94265.31;4215736;28;20158;-53
2022/06/21 04:40:06;;;;;;;15.13;8.27;;;;;;;20.68;53.68;94274.22;4206439;28;20059;-54
2022/06/21 04:42:34;;;;;;;14.00;6.65;;;;;;;20.65;53.99;94270.19;4223569;28;20458;-55
2022/06/21 04:44:51;;;;;;;13.15;7.28;;;;;;;20.42;54.27;94273.59;4203213;28;20064;-55
2022/06/21 04:46:58;;;;;;;18.13;7.55;;;;;;;20.35;54.96;94273.72;4205615;28;20260;-54
2022/06/21 04:49:15;;;;;;;14.70;8.27;;;;;;;19.98;55.62;94270.41;4206520;28;20085;-55
2022/06/21 04:51:23;;;;;;;12.98;6.78;;;;;;;19.73;56.26;94278.56;4208050;28;20488;-55
2022/06/21 04:53:45;;;;;;;15.40;7.45;;;;;;;19.59;56.85;94284.00;4206704;28;20052;-55
2022/06/21 04:56:05;;;;;;;19.33;7.82;;;;;;;19.62;57.17;94283.56;4207674;28;20058;-55
2022/06/21 04:58:09;;;;;;;13.57;7.18;;;;;;;19.80;57.01;94293.34;4202519;28;20048;-54
2022/06/21 05:00:15;;;;;;;11.35;6.78;;;;;;;20.01;56.59;94297.34;4205836;28;20116;-54
2022/06/21 05:02:30;;;;;;;14.98;7.15;;;;;;;20.24;55.48;94296.59;4208559;28;20101;-53
2022/06/21 05:04:35;;;;;;;13.00;7.68;;;;;;;20.12;55.45;94310.91;4206287;28;20048;-55
2022/06/21 05:06:38;;;;;;;14.45;8.55;;;;;;;20.01;55.53;94307.19;4218415;28;20541;-56
2022/06/21 05:08:40;;;;;;;9.43;7.82;;;;;;;19.88;55.89;94316.16;4214521;28;20196;-53
2022/06/21 05:10:45;;;;;;;16.80;7.75;;;;;;;19.70;56.51;94317.00;4212345;28;20126;-54
2022/06/21 05:12:47;;;;;;;13.13;8.25;;;;;;;19.78;56.58;94319.34;4206698;28;20497;-54
2022/06/21 05:14:53;;;;;;;18.73;8.70;;;;;;;19.93;56.48;94316.28;4206500;28;20051;-55
2022/06/21 05:16:54;;;;;;;18.60;8.82;;;;;;;20.11;55.93;94317.25;4210749;28;20104;-56
2022/06/21 05:19:12;;;;;;;15.52;8.38;;;;;;;20.24;55.34;94323.19;4214398;28;20656;-55
2022/06/21 05:21:17;;;;;;;17.80;8.10;;;;;;;20.07;55.24;94324.06;4206217;28;20079;-55
2022/06/21 05:23:20;;;;;;;13.30;7.78;;;;;;;19.98;55.45;94321.75;4207777;28;20417;-55
2022/06/21 05:25:28;;;;;;;12.57;8.70;;;;;;;20.09;54.94;94320.16;4209605;28;20150;-56
2022/06/21 05:27:38;;;;;;;13.60;7.90;;;;;;;20.24;54.69;94317.88;4219996;28;20368;-56
2022/06/21 05:29:47;;;;;;;13.38;7.72;;;;;;;20.08;54.88;94317.72;4215493;28;20512;-55
2022/06/21 05:31:53;;;;;;;12.57;8.48;;;;;;;20.16;54.65;94314.75;4208677;28;20318;-56
2022/06/21 05:33:58;;;;;;;14.07;7.90;;;;;;;20.33;54.67;94306.91;4200959;28;20505;-55
2022/06/21 05:36:01;;;;;;;13.18;7.78;;;;;;;20.56;53.86;94308.78;4202919;28;20111;-56
2022/06/21 05:38:06;;;;;;;10.23;7.38;;;;;;;20.75;53.15;94318.31;4206660;28;20089;-54
2022/06/21 05:40:19;;;;;;;13.55;6.90;;;;;;;20.92;53.04;94306.97;4202751;28;20056;-55
2022/06/21 05:42:22;;;;;;;8.98;6.72;;;;;;;20.92;51.47;94317.63;4206190;28;20533;-56
2022/06/21 05:44:30;;;;;;;14.43;6.45;;;;;;;20.92;51.71;94314.94;4218856;28;20163;-54
2022/06/21 05:46:33;;;;;;;9.23;6.50;;;;;;;20.81;51.59;94313.91;4204856;28;20044;-57
2022/06/21 05:48:37;;;;;;;10.65;6.60;;;;;;;20.76;51.76;94306.63;4217443;28;20442;-55
2022/06/21 05:50:38;;;;;;;14.75;6.28;;;;;;;20.81;51.87;94301.41;4222462;28;20059;-55
2022/06/21 05:52:43;;;;;;;14.18;7.18;;;;;;;21.02;51.24;94307.19;4220789;28;20518;-54
2022/06/21 05:54:50;;;;;;;10.65;6.40;;;;;;;21.09;51.74;94307.88;4207559;28;20085;-53
2022/06/21 05:56:51;;;;;;;16.25;6.82;;;;;;;21.00;52.38;94302.09;4216493;28;20044;-55
2022/06/21 05:59:20;;;;;;;18.42;6.80;;;;;;;20.96;52.31;94303.59;4218150;28;20222;-55
2022/06/21 06:01:58;;;;;;;15.48;6.15;;;;;;;21.12;52.71;94296.72;4218362;28;20059;-54
2022/06/21 06:04:10;;;;;;;17.17;6.78;;;;;;;21.37;52.63;94293.00;4210851;28;20048;-55
2022/06/21 06:06:15;;;;;;;12.55;6.28;;;;;;;21.50;51.85;94299.94;4222097;28;20054;-55
2022/06/21 06:08:22;;;;;;;9.27;6.32;;;;;;;21.67;51.07;94304.28;4208132;28;20083;-51
2022/06/21 06:10:24;;;;;;;8.77;6.28;;;;;;;21.65;51.10;94300.22;4211326;28;20113;-56
2022/06/21 06:12:31;;;;;;;12.77;5.93;;;;;;;21.53;51.11;94300.28;4210602;28;20048;-55
2022/06/21 06:14:44;;;;;;;8.93;5.88;;;;;;;21.31;51.36;94307.25;4218817;28;20052;-57
2022/06/21 06:16:48;;;;;;;13.07;6.40;;;;;;;21.17;51.99;94307.50;4208985;28;20086;-56
2022/06/21 06:18:58;;;;;;;13.65;6.78;;;;;;;21.34;51.67;94306.78;4209234;28;20079;-54
2022/06/21 06:21:22;;;;;;;13.27;6.22;;;;;;;21.22;52.21;94310.28;4210507;28;20101;-55
2022/06/21 06:23:38;;;;;;;9.85;6.32;;;;;;;21.21;52.63;94313.19;4208827;28;20055;-56
2022/06/21 06:25:45;;;;;;;9.25;6.78;;;;;;;21.40;52.01;94319.97;4210378;28;20048;-54
2022/06/21 06:28:00;;;;;;;17.80;6.78;;;;;;;21.44;52.63;94315.81;4203017;28;20045;-54
2022/06/21 06:30:05;;;;;;;9.82;5.88;;;;;;;21.43;52.59;94324.88;4196404;28;20082;-54
2022/06/21 06:32:18;;;;;;;12.18;5.75;;;;;;;21.54;52.63;94327.75;4208480;28;20482;-54
2022/06/21 06:34:23;;;;;;;12.35;6.75;;;;;;;21.70;52.22;94323.50;4200795;28;20071;-56
2022/06/21 06:36:29;;;;;;;11.55;6.10;;;;;;;21.87;51.99;94321.69;4208640;28;20395;-55
2022/06/21 06:38:31;;;;;;;10.40;5.68;;;;;;;22.12;51.63;94320.56;4208939;28;20060;-57
2022/06/21 06:40:36;;;;;;;11.00;5.78;;;;;;;22.37;51.41;94310.34;4210736;28;20136;-55
2022/06/21 06:42:39;;;;;;;9.13;5.47;;;;;;;22.49;51.10;94321.75;4208843;28;20044;-56
2022/06/21 06:44:43;;;;;;;10.88;8.00;;;;;;;22.66;50.95;94323.63;4215609;28;20119;-53
2022/06/21 06:46:49;;;;;;;18.38;6.47;;;;;;;22.76;50.35;94321.09;4225233;28;20442;-55
2022/06/21 06:48:53;;;;;;;12.63;6.78;;;;;;;22.79;51.11;94311.78;4210532;28;20161;-56
2022/06/21 06:51:15;;;;;;;10.18;6.55;;;;;;;22.94;50.80;94308.53;4221191;28;20464;-56
2022/06/21 06:53:24;;;;;;;17.25;7.50;;;;;;;22.97;50.52;94310.72;4214535;28;20055;-55
2022/06/21 06:55:42;;;;;;;8.98;6.20;;;;;;;22.70;51.36;94314.06;4213536;28;20052;-55
2022/06/21 06:58:24;;;;;;;9.65;6.30;;;;;;;22.61;52.02;94303.00;4198497;28;20435;-55
2022/06/21 07:00:29;;;;;;;15.98;6.50;;;;;;;22.78;51.84;94299.47;4198374;28;20097;-56
2022/06/21 07:02:38;;;;;;;14.23;6.20;;;;;;;22.67;52.18;94291.34;4207401;28;20062;-55
2022/06/21 07:04:43;;;;;;;11.20;5.60;;;;;;;22.74;52.02;94287.69;4195512;28;20062;-57
2022/06/21 07:06:48;;;;;;;9.32;5.72;;;;;;;22.91;52.15;94291.16;4215531;28;20066;-56
2022/06/21 07:09:02;;;;;;;12.18;6.30;;;;;;;23.15;51.96;94288.28;4215579;28;20073;-55
2022/06/21 07:11:05;;;;;;;;;;;;;;;23.36;51.78;94292.00;4208233;28;20056;-57
2022/06/21 07:13:08;;;;;;;13.15;5.65;;;;;;;23.57;51.32;94285.06;4209575;28;20342;-57
2022/06/21 07:15:11;;;;;;;14.70;6.28;;;;;;;23.78;51.34;94286.94;4211796;28;20240;-55
2022/06/21 07:17:19;;;;;;;10.90;6.43;;;;;;;24.00;50.80;94283.41;4214890;27;20097;-58
2022/06/21 07:19:21;;;;;;;11.48;5.93;;;;;;;24.17;50.91;94277.94;4209622;28;20074;-57
2022/06/21 07:21:23;;;;;;;17.70;7.90;;;;;;;24.21;50.45;94285.19;4206110;28;20548;-54
2022/06/21 07:23:27;;;;;;;22.27;8.32;;;;;;;24.32;50.06;94280.75;4222733;28;20092;-56
2022/06/21 07:25:41;;;;;;;12.45;6.90;;;;;;;24.41;48.92;94279.22;4209107;28;20048;-57
2022/06/21 07:27:45;;;;;;;20.58;8.65;;;;;;;24.42;49.22;94280.84;4207957;28;20135;-55
2022/06/21 07:29:58;;;;;;;16.00;7.57;;;;;;;24.63;47.49;94283.69;4206554;28;20464;-55
2022/06/21 07:32:08;;;;;;;8.57;5.95;;;;;;;24.89;47.74;94293.53;4210244;28;20472;-53
2022/06/21 07:34:20;;;;;;;7.57;4.07;;;;;;;25.04;45.55;94294.69;4204514;28;20052;-55
2022/06/21 07:36:27;;;;;;;4.93;4.03;;;;;;;25.07;44.67;94294.97;4193603;28;20422;-54
2022/06/21 07:38:42;;;;;;;8.07;4.22;;;;;;;25.24;44.31;94302.88;4205376;28;20113;-55
2022/06/21 07:40:53;;;;;;;5.18;3.95;;;;;;;25.22;44.29;94296.97;4204750;28;20078;-55
2022/06/21 07:43:28;;;;;;;7.25;4.38;;;;;;;25.43;44.21;94297.88;4217283;28;20101;-54
2022/06/21 07:45:40;;;;;;;4.88;4.10;;;;;;;25.56;43.64;94301.16;4208286;28;20048;-57
2022/06/21 07:47:52;;;;;;;8.95;4.20;;;;;;;25.60;44.28;94311.09;4208204;28;20547;-57
2022/06/21 07:49:58;;;;;;;6.32;4.07;;;;;;;25.50;44.02;94309.16;4209541;28;20498;-55
2022/06/21 07:52:30;;;;;;;10.52;4.45;;;;;;;25.55;44.61;94316.41;4208843;28;20048;-54
2022/06/21 07:54:39;;;;;;;5.82;4.20;;;;;;;25.63;45.01;94323.97;4209612;28;20085;-54
2022/06/21 07:56:53;;;;;;;6.03;3.90;;;;;;;25.63;44.83;94325.84;4218839;28;20052;-56
2022/06/21 07:59:11;;;;;;;6.70;4.50;;;;;;;25.69;44.30;94324.81;4208723;28;20185;-57
2022/06/21 08:06:42;;;;;;;7.15;4.45;;;;;;;25.94;45.02;94340.19;4206103;28;20087;-51
2022/06/21 08:09:06;;;;;;;8.32;4.75;;;;;;;25.83;44.55;94328.59;4201259;28;20517;-51
2022/06/21 08:11:16;;;;;;;7.85;4.43;;;;;;;25.97;44.95;94328.94;4213555;28;20051;-52
2022/06/21 08:13:18;;;;;;;9.55;4.30;;;;;;;26.13;44.66;94344.00;4210363;28;20044;-48
2022/06/21 08:15:25;;;;;;;9.68;5.50;;;;;;;26.06;45.01;94361.44;4212492;28;20554;-52
2022/06/21 08:17:42;;;;;;;14.45;5.65;;;;;;;25.73;45.12;94353.53;4212785;28;20085;-53
2022/06/21 08:20:12;;;;;;;11.63;5.78;;;;;;;25.76;45.51;94360.22;4213188;28;20059;-51
2022/06/21 08:22:22;;;;;;;11.60;5.38;;;;;;;25.79;45.95;94342.78;4194737;28;20490;-54
2022/06/21 08:24:42;;;;;;;11.18;5.20;;;;;;;25.86;45.81;94344.19;4202660;28;20444;-47
2022/06/21 08:26:49;;;;;;;11.00;6.00;;;;;;;25.89;46.01;94342.88;4204184;28;20064;-54
2022/06/21 08:28:56;;;;;;;8.82;6.10;;;;;;;26.02;45.49;94350.41;4213426;28;20241;-50
2022/06/21 08:31:02;;;;;;;10.13;5.68;;;;;;;26.07;45.34;94350.44;4205527;28;20753;-50
2022/06/21 08:33:34;;;;;;;13.75;6.07;;;;;;;26.06;45.69;94362.25;4209278;28;20056;-48
2022/06/21 08:35:41;;;;;;;12.65;6.03;;;;;;;26.11;45.52;94356.06;4199803;28;20051;-51
2022/06/21 08:38:23;;;;;;;10.43;5.97;;;;;;;26.23;45.58;94350.47;4197156;28;20040;-51
2022/06/21 08:40:43;;;;;;;10.02;5.63;;;;;;;25.75;46.71;94346.00;4190745;28;20105;-53
2022/06/21 08:43:23;;;;;;;9.55;6.38;;;;;;;25.99;46.82;94350.16;4207057;28;20681;-54
2022/06/21 08:45:43;;;;;;;9.15;5.80;;;;;;;26.32;46.72;94351.56;4218012;28;20153;-52
2022/06/21 08:48:09;;;;;;;11.63;5.88;;;;;;;26.39;45.90;94356.69;4195327;28;20058;-53
2022/06/21 08:50:23;;;;;;;12.70;5.93;;;;;;;26.42;46.15;94340.84;4208905;28;20060;-53
2022/06/21 08:52:28;;;;;;;9.32;5.82;;;;;;;26.43;46.48;94347.81;4208136;28;20109;-56
2022/06/21 08:54:41;;;;;;;13.90;6.60;;;;;;;26.39;46.29;94360.16;4208388;28;20709;-53
2022/06/21 08:57:03;;;;;;;13.95;6.38;;;;;;;26.51;46.30;94346.50;4214779;28;20047;-55
2022/06/21 08:59:21;;;;;;;9.10;6.35;;;;;;;26.42;46.66;94340.84;4198033;28;20056;-54
2022/06/21 09:01:31;;;;;;;7.53;5.72;;;;;;;26.25;46.69;94342.97;4205263;28;20051;-54
2022/06/21 09:03:42;;;;;;;8.05;6.45;;;;;;;26.30;47.24;94349.13;4208247;28;20048;-51
2022/06/21 09:06:11;;;;;;;11.48;6.38;;;;;;;26.28;47.17;94343.22;4219876;28;20051;-54
2022/06/21 09:08:38;;;;;;;14.05;6.32;;;;;;;26.34;47.46;94336.00;4197300;28;20571;-55
2022/06/21 09:11:24;;;;;;;13.43;6.60;;;;;;;26.35;47.59;94326.88;4219445;28;20060;-53
2022/06/21 09:13:40;;;;;;;14.05;6.68;;;;;;;26.27;47.30;94324.72;4208751;28;20055;-52
2022/06/21 09:16:20;;;;;;;17.15;6.57;;;;;;;26.46;46.87;94328.50;4208848;28;20048;-53
2022/06/21 09:18:43;;;;;;;9.77;7.05;;;;;;;26.53;47.24;94312.91;4195214;28;20044;-55
2022/06/21 09:21:03;;;;;;;11.80;7.00;;;;;;;26.58;46.92;94322.09;4208126;28;20113;-51
2022/06/21 09:23:07;;;;;;;10.23;5.88;;;;;;;26.45;46.84;94329.56;4218778;28;20055;-54
2022/06/21 09:25:17;;;;;;;10.27;6.78;;;;;;;26.50;47.36;94315.31;4206888;28;20478;-58
2022/06/21 09:27:28;;;;;;;11.30;6.28;;;;;;;26.48;48.12;94318.28;4206796;28;20063;-57
2022/06/21 09:29:50;;;;;;;9.38;6.63;;;;;;;26.64;47.63;94313.75;4222572;28;20051;-55
2022/06/21 09:31:55;;;;;;;14.15;6.75;;;;;;;26.68;47.66;94319.41;4221053;28;20171;-54
2022/06/21 09:34:03;;;;;;;11.15;6.88;;;;;;;26.80;46.84;94303.00;4212389;28;20630;-52
2022/06/21 09:36:14;;;;;;;12.27;6.85;;;;;;;26.65;47.12;94307.31;4210129;28;20052;-55
2022/06/21 09:38:34;;;;;;;12.07;6.60;;;;;;;26.48;47.94;94312.09;4208300;28;20048;-55
2022/06/21 09:40:42;;;;;;;9.63;6.35;;;;;;;26.64;47.76;94297.63;4212731;28;20101;-56
2022/06/21 09:43:11;;;;;;;10.43;6.97;;;;;;;26.84;47.50;94298.69;4210423;28;20060;-56
2022/06/21 09:45:21;;;;;;;10.65;7.05;;;;;;;26.97;47.01;94303.50;4211691;28;20067;-57
2022/06/21 09:47:45;;;;;;;14.93;6.43;;;;;;;27.08;46.79;94297.06;4207210;28;20481;-56
2022/06/21 09:49:50;;;;;;;;;;;;;;;27.23;46.75;94290.84;4217425;27;20458;-56
2022/06/21 09:52:32;;;;;;;9.00;7.00;;;;;;;27.35;47.30;94310.19;4210742;28;19924;-57
2022/06/21 09:54:39;;;;;;;11.63;6.35;;;;;;;27.21;46.21;94301.06;4202922;28;20051;-55
2022/06/21 09:56:52;;;;;;;9.23;6.85;;;;;;;27.32;46.89;94296.50;4211343;28;20121;-56
2022/06/21 09:58:53;;;;;;;12.38;6.32;;;;;;;27.47;46.48;94295.63;4200627;28;20044;-56
2022/06/21 10:01:03;;;;;;;12.80;6.68;;;;;;;27.50;45.20;94295.09;4209591;28;20498;-56
2022/06/21 10:03:33;;;;;;;11.43;6.65;;;;;;;27.42;45.87;94298.34;4201461;28;20051;-58
2022/06/21 10:05:45;;;;;;;11.88;6.88;;;;;;;27.52;45.59;94296.41;4210956;28;20129;-53
2022/06/21 10:08:13;;;;;;;11.00;6.85;;;;;;;27.53;46.06;94298.03;4209272;28;20109;-56
2022/06/21 10:10:21;;;;;;;13.05;7.70;;;;;;;27.12;45.99;94295.41;4194388;28;20055;-57
2022/06/21 10:12:48;;;;;;;10.52;8.15;;;;;;;27.04;46.16;94285.25;4210450;28;20044;-57
2022/06/21 10:14:52;;;;;;;13.07;7.38;;;;;;;27.33;46.19;94272.00;4197328;28;20055;-56
2022/06/21 10:16:59;;;;;;;;;;;;;;;27.64;45.02;94279.13;4209943;28;20062;-55
2022/06/21 10:19:20;;;;;;;17.52;8.70;;;;;;;27.57;45.71;94280.25;4210569;28;20453;-55